createdAt,value
2018-04-09T00:02:19.236Z,48.07
2018-04-09T00:04:48.305Z,43.40
2018-04-09T00:07:15.880Z,44.37
2018-04-09T00:09:43.460Z,44.63
2018-04-09T00:12:11.045Z,46.83
2018-04-09T00:14:38.618Z,44.60
2018-04-09T00:17:06.185Z,43.07
2018-04-09T00:19:33.741Z,43.17
2018-04-09T00:22:01.406Z,45.93
2018-04-09T00:24:29.068Z,43.87
2018-04-09T00:26:56.658Z,44.20
2018-04-09T00:29:25.744Z,45.80
2018-04-09T00:31:53.297Z,39.10
2018-04-09T00:34:20.912Z,41.27
2018-04-09T00:36:49.229Z,42.97
2018-04-09T00:39:16.829Z,48.90
2018-04-09T00:41:45.164Z,41.57
2018-04-09T00:44:12.757Z,42.50
2018-04-09T00:46:41.127Z,45.10
2018-04-09T00:49:08.675Z,42.00
2018-04-09T00:51:36.232Z,40.00
2018-04-09T00:54:03.812Z,43.90
2018-04-09T00:56:31.469Z,42.07
2018-04-09T00:58:59.055Z,42.57
2018-04-09T01:01:27.380Z,43.50
2018-04-09T01:03:54.929Z,43.30
2018-04-09T01:06:22.520Z,46.50
2018-04-09T01:08:50.098Z,49.37
2018-04-09T01:11:17.672Z,46.47
2018-04-09T01:13:46.009Z,49.70
2018-04-09T01:16:13.589Z,51.23
2018-04-09T01:18:41.175Z,49.40
2018-04-09T01:21:09.533Z,47.00
2018-04-09T01:23:37.173Z,47.10
2018-04-09T01:26:04.749Z,49.77
2018-04-09T01:28:33.112Z,49.20
2018-04-09T01:31:02.196Z,46.40
2018-04-09T01:33:29.752Z,51.27
2018-04-09T01:35:57.320Z,43.90
2018-04-09T01:38:24.882Z,45.57
2018-04-09T01:40:52.476Z,44.67
2018-04-09T01:43:20.828Z,42.17
2018-04-09T01:45:48.421Z,45.00
2018-04-09T01:48:16.733Z,44.27
2018-04-09T01:50:44.306Z,46.80
2018-04-09T01:53:11.888Z,47.00
2018-04-09T01:55:39.510Z,46.93
2018-04-09T01:58:07.088Z,48.40
2018-04-09T02:00:34.664Z,46.37
2018-04-09T02:03:02.395Z,49.50
2018-04-09T02:05:29.985Z,46.90
2018-04-09T02:07:57.544Z,45.80
2018-04-09T02:10:25.137Z,47.43
2018-04-09T02:12:53.485Z,47.23
2018-04-09T02:15:21.144Z,49.03
2018-04-09T02:17:48.721Z,50.30
2018-04-09T02:20:16.389Z,47.90
2018-04-09T02:22:44.726Z,48.87
2018-04-09T02:25:12.413Z,48.30
2018-04-09T02:27:40.068Z,44.43
2018-04-09T02:30:07.637Z,44.97
2018-04-09T02:32:36.728Z,44.60
2018-04-09T02:35:04.316Z,43.90
2018-04-09T02:37:32.632Z,47.00
2018-04-09T02:40:00.194Z,47.93
2018-04-09T02:42:27.776Z,48.30
2018-04-09T02:44:55.337Z,46.80
2018-04-09T02:47:22.911Z,47.97
2018-04-09T02:49:50.571Z,49.80
2018-04-09T02:52:18.209Z,46.53
2018-04-09T02:54:45.791Z,51.10
2018-04-09T02:57:13.433Z,49.23
2018-04-09T02:59:40.985Z,48.67
2018-04-09T03:02:08.545Z,50.07
2018-04-09T03:04:36.132Z,52.07
2018-04-09T03:07:04.497Z,48.27
2018-04-09T03:09:32.851Z,52.23
2018-04-09T03:12:00.606Z,51.33
2018-04-09T03:14:28.200Z,51.43
2018-04-09T03:16:55.783Z,50.03
2018-04-09T03:19:24.112Z,49.77
2018-04-09T03:21:51.697Z,50.07
2018-04-09T03:24:19.257Z,48.97
2018-04-09T03:26:46.855Z,49.43
2018-04-09T03:29:14.409Z,46.80
2018-04-09T03:31:42.737Z,46.60
2018-04-09T03:34:10.332Z,45.07
2018-04-09T03:36:38.665Z,45.00
2018-04-09T03:39:06.260Z,44.37
2018-04-09T03:41:33.857Z,46.70
2018-04-09T03:44:01.471Z,44.20
2018-04-09T03:46:29.060Z,47.67
2018-04-09T03:48:57.376Z,46.27
2018-04-09T03:51:24.944Z,43.07
2018-04-09T03:53:52.525Z,49.20
2018-04-09T03:56:20.105Z,52.20
2018-04-09T03:58:48.434Z,45.07
2018-04-09T04:01:16.024Z,48.30
2018-04-09T04:03:43.593Z,45.93
2018-04-09T04:06:11.180Z,49.20
2018-04-09T04:08:39.527Z,47.47
2018-04-09T04:11:07.124Z,48.40
2018-04-09T04:13:34.718Z,47.50
2018-04-09T04:16:14.224Z,46.33
2018-04-09T04:18:53.688Z,47.27
2018-04-09T04:21:33.162Z,49.03
2018-04-09T04:24:00.816Z,45.60
2018-04-09T04:26:28.427Z,49.60
2018-04-09T04:28:56.732Z,44.87
2018-04-09T04:31:24.322Z,48.30
2018-04-09T04:33:51.928Z,51.30
2018-04-09T04:36:19.596Z,53.63
2018-04-09T04:38:47.390Z,52.07
2018-04-09T04:41:14.976Z,56.40
2018-04-09T04:43:43.304Z,53.87
2018-04-09T04:46:10.893Z,53.87
2018-04-09T04:48:38.443Z,53.10
2018-04-09T04:51:06.025Z,53.23
2018-04-09T04:53:33.632Z,57.93
2018-04-09T04:56:01.187Z,60.00
2018-04-09T04:58:28.792Z,56.70
2018-04-09T05:00:56.448Z,55.73
2018-04-09T05:03:24.042Z,60.27
2018-04-09T05:05:52.403Z,57.90
2018-04-09T05:08:20.051Z,60.77
2018-04-09T05:10:47.641Z,58.43
2018-04-09T05:13:15.977Z,52.30
2018-04-09T05:15:43.557Z,54.97
2018-04-09T05:18:11.120Z,52.53
2018-04-09T05:20:38.702Z,51.27
2018-04-09T05:23:07.050Z,54.07
2018-04-09T05:25:34.712Z,57.20
2018-04-09T05:28:03.034Z,55.63
2018-04-09T05:30:30.719Z,60.47
2018-04-09T05:32:58.292Z,63.00
2018-04-09T05:35:25.867Z,64.67
2018-04-09T05:37:53.453Z,63.80
2018-04-09T05:40:21.812Z,61.57
2018-04-09T05:42:49.402Z,64.80
2018-04-09T05:45:17.021Z,61.07
2018-04-09T05:47:44.589Z,62.23
2018-04-09T05:50:12.962Z,63.50
2018-04-09T05:52:40.526Z,63.73
2018-04-09T05:55:08.111Z,61.60
2018-04-09T05:57:36.430Z,61.33
2018-04-09T06:00:03.986Z,61.40
2018-04-09T06:02:31.568Z,60.47
2018-04-09T06:04:59.152Z,60.70
2018-04-09T06:07:26.712Z,59.20
2018-04-09T06:09:55.061Z,57.80
2018-04-09T06:12:22.712Z,57.50
2018-04-09T06:14:50.274Z,59.70
2018-04-09T06:17:17.821Z,64.37
2018-04-09T06:19:45.420Z,61.03
2018-04-09T06:22:12.975Z,67.27
2018-04-09T06:24:40.540Z,62.43
2018-04-09T06:27:08.128Z,60.70
2018-04-09T06:29:36.445Z,62.70
2018-04-09T06:32:04.025Z,63.83
2018-04-09T06:34:31.593Z,65.20
2018-04-09T06:36:59.184Z,66.00
2018-04-09T06:39:27.510Z,71.70
2018-04-09T06:41:55.075Z,69.53
2018-04-09T06:44:22.684Z,66.20
2018-04-09T06:46:51.001Z,65.40
2018-04-09T06:49:18.586Z,65.20
2018-04-09T06:51:46.156Z,71.73
2018-04-09T06:54:15.224Z,65.23
2018-04-09T06:56:42.905Z,68.20
2018-04-09T06:59:10.455Z,64.67
2018-04-09T07:01:38.004Z,61.87
2018-04-09T07:04:05.608Z,60.37
2018-04-09T07:06:33.932Z,60.10
2018-04-09T07:09:01.545Z,60.90
2018-04-09T07:11:29.897Z,57.77
2018-04-09T07:13:57.452Z,62.97
2018-04-09T07:16:25.038Z,63.20
2018-04-09T07:18:53.388Z,60.57
2018-04-09T07:21:20.944Z,60.47
2018-04-09T07:23:48.609Z,62.73
2018-04-09T07:26:16.203Z,63.07
2018-04-09T07:28:44.564Z,59.70
2018-04-09T07:31:13.620Z,57.97
2018-04-09T07:33:41.208Z,56.90
2018-04-09T07:36:08.789Z,56.17
2018-04-09T07:38:37.116Z,55.47
2018-04-09T07:41:04.804Z,55.97
2018-04-09T07:43:32.464Z,56.20
2018-04-09T07:46:00.024Z,57.47
2018-04-09T07:48:27.607Z,53.40
2018-04-09T07:50:55.970Z,56.07
2018-04-09T07:53:24.323Z,56.07
2018-04-09T07:55:51.904Z,56.27
2018-04-09T07:58:19.552Z,56.00
2018-04-09T08:00:47.111Z,55.53
2018-04-09T08:03:14.738Z,54.50
2018-04-09T08:05:42.297Z,54.03
2018-04-09T08:08:09.867Z,53.80
2018-04-09T08:10:37.458Z,53.80
2018-04-09T08:13:05.108Z,53.03
2018-04-09T08:15:32.697Z,50.90
2018-04-09T08:18:00.336Z,50.57
2018-04-09T08:20:28.100Z,51.10
2018-04-09T08:22:55.743Z,52.07
2018-04-09T08:25:23.335Z,48.23
2018-04-09T08:27:51.697Z,52.73
2018-04-09T08:30:19.267Z,50.60
2018-04-09T08:32:47.268Z,51.50
2018-04-09T08:35:15.612Z,50.20
2018-04-09T08:37:43.168Z,49.30
2018-04-09T08:40:10.756Z,48.27
2018-04-09T08:42:39.103Z,47.20
2018-04-09T08:45:06.681Z,46.13
2018-04-09T08:47:35.044Z,48.23
2018-04-09T08:50:02.621Z,44.57
2018-04-09T08:52:30.211Z,43.83
2018-04-09T08:54:57.792Z,44.30
2018-04-09T08:57:25.360Z,42.83
2018-04-09T08:59:52.916Z,41.50
2018-04-09T09:02:20.504Z,42.70
2018-04-09T09:04:48.163Z,41.73
2018-04-09T09:07:15.748Z,45.13
2018-04-09T09:09:44.074Z,44.60
2018-04-09T09:12:11.664Z,39.23
2018-04-09T09:14:39.312Z,40.97
2018-04-09T09:17:06.868Z,41.37
2018-04-09T09:19:34.541Z,39.50
2018-04-09T09:22:02.092Z,38.17
2018-04-09T09:24:29.765Z,34.13
2018-04-09T09:26:57.325Z,31.07
2018-04-09T09:29:25.948Z,28.83
2018-04-09T09:31:54.290Z,29.10
2018-04-09T09:34:21.846Z,26.87
2018-04-09T09:36:49.434Z,24.93
2018-04-09T09:39:17.806Z,24.03
2018-04-09T09:41:46.263Z,24.33
2018-04-09T09:44:13.821Z,22.67
2018-04-09T09:46:41.376Z,20.90
2018-04-09T09:49:08.986Z,20.53
2018-04-09T09:51:36.600Z,19.43
2018-04-09T09:54:04.188Z,20.30
2018-04-09T09:56:32.509Z,19.00
2018-04-09T09:59:00.074Z,18.03
2018-04-09T10:01:27.663Z,17.57
2018-04-09T10:03:55.239Z,17.40
2018-04-09T10:06:23.588Z,15.77
2018-04-09T10:08:51.151Z,18.70
2018-04-09T10:11:18.713Z,16.77
2018-04-09T10:13:46.297Z,18.40
2018-04-09T10:16:13.925Z,17.10
2018-04-09T10:18:41.516Z,19.80
2018-04-09T10:21:09.895Z,20.20
2018-04-09T10:23:38.226Z,19.53
2018-04-09T10:26:05.780Z,19.83
2018-04-09T10:28:33.367Z,20.03
2018-04-09T10:31:00.933Z,20.07
2018-04-09T10:33:28.520Z,20.97
2018-04-09T10:35:56.868Z,21.43
2018-04-09T10:38:24.531Z,22.27
2018-04-09T10:40:52.194Z,20.80
2018-04-09T10:43:19.847Z,20.13
2018-04-09T10:45:47.409Z,22.73
2018-04-09T10:48:14.992Z,20.60
2018-04-09T10:50:42.552Z,19.83
2018-04-09T10:53:10.152Z,20.50
2018-04-09T10:55:37.775Z,20.20
2018-04-09T10:58:05.313Z,20.77
2018-04-09T11:00:32.917Z,18.87
2018-04-09T11:03:00.464Z,21.10
2018-04-09T11:05:28.789Z,18.03
2018-04-09T11:07:56.472Z,16.40
2018-04-09T11:10:24.130Z,19.93
2018-04-09T11:12:51.681Z,23.00
2018-04-09T11:15:19.308Z,25.30
2018-04-09T11:17:47.639Z,26.97
2018-04-09T11:20:15.187Z,30.50
2018-04-09T11:22:42.780Z,31.03
2018-04-09T11:25:11.120Z,36.93
2018-04-09T11:27:38.739Z,33.20
2018-04-09T11:30:06.298Z,34.80
2018-04-09T11:32:33.855Z,34.90
2018-04-09T11:35:01.446Z,32.40
2018-04-09T11:37:29.023Z,32.97
2018-04-09T11:39:56.626Z,25.40
2018-04-09T11:42:24.984Z,18.77
2018-04-09T11:44:52.538Z,31.33
2018-04-09T11:47:20.180Z,37.93
2018-04-09T11:49:47.765Z,40.37
2018-04-09T11:52:15.394Z,37.33
2018-04-09T11:54:42.983Z,29.97
2018-04-09T11:57:10.624Z,24.03
2018-04-09T11:59:38.207Z,27.70
2018-04-09T12:02:05.773Z,16.90
2018-04-09T12:04:34.149Z,15.80
2018-04-09T12:07:02.513Z,16.20
2018-04-09T12:09:30.138Z,16.50
2018-04-09T12:11:57.730Z,16.20
2018-04-09T12:14:25.364Z,16.93
2018-04-09T12:16:52.968Z,16.67
2018-04-09T12:19:21.343Z,17.23
2018-04-09T12:21:49.676Z,15.17
2018-04-09T12:24:17.354Z,16.13
2018-04-09T12:26:44.978Z,15.80
2018-04-09T12:29:12.583Z,17.17
2018-04-09T12:31:40.149Z,17.23
2018-04-09T12:34:07.743Z,16.53
2018-04-09T12:36:35.353Z,14.73
2018-04-09T12:39:02.902Z,17.60
2018-04-09T12:41:30.455Z,16.63
2018-04-09T12:43:58.043Z,17.30
2018-04-09T12:46:25.710Z,16.20
2018-04-09T12:48:54.375Z,15.83
2018-04-09T12:51:22.403Z,15.80
2018-04-09T12:53:50.959Z,15.77
2018-04-09T12:56:18.608Z,15.13
2018-04-09T12:58:46.154Z,16.00
2018-04-09T13:01:13.738Z,14.33
2018-04-09T13:03:42.089Z,15.20
2018-04-09T13:06:09.654Z,15.30
2018-04-09T13:08:37.214Z,14.40
2018-04-09T13:11:04.790Z,15.30
2018-04-09T13:13:32.350Z,14.43
2018-04-09T13:16:00.799Z,15.27
2018-04-09T13:18:28.345Z,14.13
2018-04-09T13:20:56.029Z,14.10
2018-04-09T13:23:23.589Z,14.57
2018-04-09T13:25:51.142Z,13.20
2018-04-09T13:28:18.726Z,15.60
2018-04-09T13:30:46.397Z,14.43
2018-04-09T13:33:13.985Z,13.80
2018-04-09T13:35:41.625Z,13.67
2018-04-09T13:38:09.137Z,13.97
2018-04-09T13:40:36.733Z,13.77
2018-04-09T13:43:04.290Z,13.93
2018-04-09T13:45:32.642Z,14.47
2018-04-09T13:48:00.226Z,13.67
2018-04-09T13:50:27.892Z,14.13
2018-04-09T13:52:55.482Z,14.20
2018-04-09T13:55:23.038Z,14.90
2018-04-09T13:57:50.650Z,15.33
2018-04-09T14:00:18.241Z,13.40
2018-04-09T14:02:46.581Z,13.33
2018-04-09T14:05:14.173Z,12.13
2018-04-09T14:07:42.501Z,11.13
2018-04-09T14:10:10.093Z,11.03
2018-04-09T14:12:37.684Z,12.97
2018-04-09T14:15:06.084Z,11.17
2018-04-09T14:17:33.714Z,12.70
2018-04-09T14:20:02.074Z,12.60
2018-04-09T14:22:29.639Z,14.03
2018-04-09T14:24:57.206Z,12.23
2018-04-09T14:27:25.670Z,12.47
2018-04-09T14:29:53.267Z,12.93
2018-04-09T14:32:21.137Z,13.20
2018-04-09T14:34:48.799Z,11.77
2018-04-09T14:37:16.362Z,12.27
2018-04-09T14:39:43.962Z,12.43
2018-04-09T14:42:11.625Z,12.67
2018-04-09T14:44:39.195Z,11.80
2018-04-09T14:47:06.863Z,12.20
2018-04-09T14:49:34.421Z,11.90
2018-04-09T14:52:02.027Z,12.80
2018-04-09T14:54:30.367Z,12.80
2018-04-09T14:56:57.968Z,12.17
2018-04-09T14:59:25.575Z,12.90
2018-04-09T15:01:53.130Z,12.67
2018-04-09T15:04:20.710Z,12.10
2018-04-09T15:06:49.766Z,12.80
2018-04-09T15:09:17.358Z,12.73
2018-04-09T15:11:44.911Z,11.40
2018-04-09T15:14:14.007Z,14.63
2018-04-09T15:16:41.583Z,14.10
2018-04-09T15:19:09.928Z,14.80
2018-04-09T15:21:37.540Z,15.00
2018-04-09T15:24:05.090Z,16.23
2018-04-09T15:26:33.443Z,14.60
2018-04-09T15:29:01.043Z,16.20
2018-04-09T15:31:28.656Z,15.33
2018-04-09T15:33:56.244Z,16.70
2018-04-09T15:36:24.607Z,15.57
2018-04-09T15:38:52.254Z,15.70
2018-04-09T15:41:19.819Z,15.17
2018-04-09T15:43:47.387Z,16.77
2018-04-09T15:46:14.976Z,15.60
2018-04-09T15:48:42.566Z,15.13
2018-04-09T15:51:10.155Z,13.83
2018-04-09T15:53:37.722Z,15.60
2018-04-09T15:56:05.319Z,14.63
2018-04-09T15:58:32.878Z,14.90
2018-04-09T16:01:00.496Z,14.23
2018-04-09T16:03:28.857Z,13.77
2018-04-09T16:05:56.446Z,13.57
2018-04-09T16:08:24.031Z,15.13
2018-04-09T16:10:52.382Z,12.70
2018-04-09T16:13:20.041Z,12.10
2018-04-09T16:15:47.700Z,15.00
2018-04-09T16:18:15.392Z,13.80
2018-04-09T16:20:43.804Z,12.63
2018-04-09T16:23:11.507Z,11.80
2018-04-09T16:25:39.152Z,13.27
2018-04-09T16:28:06.742Z,13.50
2018-04-09T16:30:35.077Z,12.60
2018-04-09T16:33:02.670Z,13.07
2018-04-09T16:35:30.307Z,14.20
2018-04-09T16:37:57.884Z,14.07
2018-04-09T16:40:25.540Z,13.50
2018-04-09T16:42:54.637Z,13.47
2018-04-09T16:45:22.222Z,16.53
2018-04-09T16:47:50.569Z,16.00
2018-04-09T16:50:18.171Z,14.87
2018-04-09T16:52:46.493Z,14.70
2018-04-09T16:55:14.038Z,12.73
2018-04-09T16:57:41.626Z,14.67
2018-04-09T17:00:09.222Z,15.10
2018-04-09T17:02:37.609Z,14.53
2018-04-09T17:05:05.166Z,16.23
2018-04-09T17:07:33.490Z,15.70
2018-04-09T17:10:01.165Z,15.90
2018-04-09T17:12:30.232Z,15.80
2018-04-09T17:14:57.814Z,15.30
2018-04-09T17:17:25.370Z,16.60
2018-04-09T17:19:53.011Z,16.80
2018-04-09T17:22:20.595Z,16.50
2018-04-09T17:24:48.333Z,16.27
2018-04-09T17:27:15.878Z,14.77
2018-04-09T17:29:43.503Z,17.53
2018-04-09T17:32:11.138Z,16.50
2018-04-09T17:34:38.708Z,18.30
2018-04-09T17:37:06.265Z,21.00
2018-04-09T17:39:35.354Z,30.90
2018-04-09T17:42:02.912Z,23.37
2018-04-09T17:44:30.507Z,19.23
2018-04-09T17:46:58.834Z,20.33
2018-04-09T17:49:26.419Z,20.50
2018-04-09T17:51:54.019Z,17.90
2018-04-09T17:54:21.594Z,17.57
2018-04-09T17:56:49.185Z,18.13
2018-04-09T17:59:16.741Z,17.73
2018-04-09T18:01:44.306Z,24.50
2018-04-09T18:04:11.904Z,25.17
2018-04-09T18:06:40.230Z,22.60
2018-04-09T18:09:07.826Z,20.57
2018-04-09T18:11:35.410Z,21.07
2018-04-09T18:14:03.736Z,20.40
2018-04-09T18:16:31.344Z,20.80
2018-04-09T18:18:59.677Z,19.83
2018-04-09T18:21:27.279Z,19.80
2018-04-09T18:23:55.597Z,20.27
2018-04-09T18:26:23.190Z,21.70
2018-04-09T18:28:50.857Z,21.57
2018-04-09T18:31:18.445Z,23.07
2018-04-09T18:33:46.802Z,23.50
2018-04-09T18:36:15.383Z,21.37
2018-04-09T18:38:43.791Z,21.70
2018-04-09T18:41:11.380Z,21.37
2018-04-09T18:43:38.980Z,22.50
2018-04-09T18:46:06.543Z,22.70
2018-04-09T18:48:34.325Z,21.53
2018-04-09T18:51:02.674Z,22.30
2018-04-09T18:53:30.279Z,24.87
2018-04-09T18:55:57.881Z,25.47
2018-04-09T18:58:25.539Z,26.97
2018-04-09T19:00:53.126Z,27.90
2018-04-09T19:03:20.702Z,27.90
2018-04-09T19:05:49.069Z,27.30
2018-04-09T19:08:17.389Z,28.63
2018-04-09T19:10:44.954Z,28.73
2018-04-09T19:13:12.534Z,29.40
2018-04-09T19:15:40.127Z,29.20
2018-04-09T19:18:08.455Z,30.40
2018-04-09T19:20:36.014Z,28.87
2018-04-09T19:23:03.612Z,28.87
2018-04-09T19:25:31.175Z,28.73
2018-04-09T19:27:58.742Z,29.17
2018-04-09T19:30:27.101Z,29.50
2018-04-09T19:32:54.660Z,29.87
2018-04-09T19:35:23.722Z,27.20
2018-04-09T19:37:57.049Z,26.93
2018-04-09T19:40:31.016Z,26.77
2018-04-09T19:42:58.616Z,28.80
2018-04-09T19:45:26.938Z,26.10
2018-04-09T19:47:54.536Z,26.20
2018-04-09T19:50:22.116Z,25.40
2018-04-09T19:52:49.672Z,26.93
2018-04-09T19:55:17.317Z,23.90
2018-04-09T19:57:44.894Z,24.80
2018-04-09T20:00:12.551Z,25.20
2018-04-09T20:02:40.128Z,25.50
2018-04-09T20:05:07.718Z,25.20
2018-04-09T20:07:35.277Z,25.97
2018-04-09T20:10:02.854Z,25.00
2018-04-09T20:12:30.412Z,25.67
2018-04-09T20:14:58.002Z,23.77
2018-04-09T20:17:25.550Z,23.30
2018-04-09T20:19:53.177Z,24.17
2018-04-09T20:22:21.152Z,23.97
2018-04-09T20:24:48.750Z,23.13
2018-04-09T20:27:16.311Z,23.10
2018-04-09T20:29:43.874Z,22.33
2018-04-09T20:32:11.458Z,23.40
2018-04-09T20:34:39.097Z,25.30
2018-04-09T20:37:06.690Z,23.10
2018-04-09T20:39:35.016Z,24.13
2018-04-09T20:42:02.610Z,24.53
2018-04-09T20:44:30.234Z,24.13
2018-04-09T20:46:57.886Z,22.63
2018-04-09T20:49:25.964Z,22.87
2018-04-09T20:51:54.662Z,24.60
2018-04-09T20:54:22.426Z,23.47
2018-04-09T20:56:50.018Z,26.03
2018-04-09T20:59:18.352Z,24.57
2018-04-09T21:01:45.918Z,23.37
2018-04-09T21:04:13.506Z,25.80
2018-04-09T21:06:41.060Z,24.53
2018-04-09T21:09:08.647Z,26.67
2018-04-09T21:11:36.996Z,24.97
2018-04-09T21:14:04.577Z,22.93
2018-04-09T21:16:32.908Z,24.20
2018-04-09T21:19:00.581Z,23.93
2018-04-09T21:21:28.180Z,23.90
2018-04-09T21:23:56.508Z,23.70
2018-04-09T21:26:24.060Z,24.60
2018-04-09T21:28:51.654Z,24.07
2018-04-09T21:31:19.313Z,22.93
2018-04-09T21:33:46.870Z,23.63
2018-04-09T21:36:14.465Z,22.70
2018-04-09T21:38:42.049Z,22.03
2018-04-09T21:41:09.627Z,22.53
2018-04-09T21:43:37.316Z,22.77
2018-04-09T21:46:04.965Z,24.23
2018-04-09T21:48:32.548Z,23.17
2018-04-09T21:51:00.872Z,23.67
2018-04-09T21:53:28.467Z,25.00
2018-04-09T21:55:56.119Z,22.97
2018-04-09T21:58:23.671Z,23.30
2018-04-09T22:00:51.246Z,24.87
2018-04-09T22:03:18.843Z,24.30
2018-04-09T22:05:47.162Z,25.50
2018-04-09T22:08:14.740Z,25.27
2018-04-09T22:10:42.406Z,25.33
2018-04-09T22:13:09.982Z,23.97
2018-04-09T22:15:38.343Z,23.93
2018-04-09T22:18:05.917Z,24.93
2018-04-09T22:20:34.280Z,23.30
2018-04-09T22:23:01.829Z,23.30
2018-04-09T22:25:29.414Z,24.30
2018-04-09T22:27:57.055Z,22.90
2018-04-09T22:30:24.611Z,22.90
2018-04-09T22:32:52.307Z,23.90
2018-04-09T22:35:19.945Z,22.37
2018-04-09T22:37:47.598Z,23.17
2018-04-09T22:40:15.182Z,23.63
2018-04-09T22:42:43.503Z,22.10
2018-04-09T22:45:11.120Z,25.07
2018-04-09T22:47:38.683Z,23.10
2018-04-09T22:50:07.054Z,23.20
2018-04-09T22:52:35.438Z,21.90
2018-04-09T22:55:03.029Z,21.03
2018-04-09T22:57:30.592Z,21.17
2018-04-09T22:59:58.154Z,21.93
2018-04-09T23:02:25.830Z,23.60
2018-04-09T23:04:53.413Z,23.50
2018-04-09T23:07:21.080Z,23.47
2018-04-09T23:09:48.641Z,23.97
2018-04-09T23:12:16.266Z,22.50
2018-04-09T23:14:43.816Z,21.00
2018-04-09T23:17:11.413Z,21.93
2018-04-09T23:19:38.982Z,24.27
2018-04-09T23:22:06.633Z,21.80
2018-04-09T23:24:34.273Z,22.47
2018-04-09T23:27:01.869Z,23.53
2018-04-09T23:29:29.516Z,21.70
2018-04-09T23:31:57.075Z,24.00
2018-04-09T23:34:24.630Z,22.93
2018-04-09T23:36:52.205Z,21.63
2018-04-09T23:39:19.761Z,24.30
2018-04-09T23:41:47.393Z,23.27
2018-04-09T23:44:14.974Z,23.83
2018-04-09T23:46:42.645Z,23.60
2018-04-09T23:49:10.210Z,23.63
2018-04-09T23:51:38.567Z,22.53
2018-04-09T23:54:06.129Z,23.03
2018-04-09T23:56:33.686Z,23.17
2018-04-09T23:59:01.319Z,23.80
